ADDS METAR Data INFO
IDs: Format: Raw Decoded Include TAF

Data at: 1352 UTC 23 Jun 2018

KDNN 231335Z AUTO 14003KT BKN010 OVC015 22/21 A2996 RMK AO2 LTG DSNT SW PWINO
KDNN 231315Z AUTO 15003KT 22/21 A2996 RMK AO2 PWINO
KDNN 231255Z AUTO 13003KT 22/21 A2995 RMK AO2 PWINO
KDNN 231235Z AUTO 12005KT 22/21 A2994 RMK AO2 PWINO
KDNN 231215Z AUTO 00000KT 21/21 A2994 RMK AO2 PWINO
KDNN 231155Z AUTO 00000KT BKN014 OVC075 20/20 A2994 RMK AO2 PWINO
KDNN 231135Z AUTO 00000KT OVC014 20/20 A2994 RMK AO2 PWINO
KDNN 231115Z AUTO 00000KT OVC014 20/20 A2992 RMK AO2 PWINO
KDNN 231055Z AUTO 00000KT OVC014 20/20 A2992 RMK AO2 PWINO
KDNN 231035Z AUTO 00000KT BKN014 20/20 A2991 RMK AO2 PWINO
KDNN 231015Z AUTO 00000KT 20/20 A2990 RMK AO2 PWINO
KDNN 230955Z AUTO 00000KT OVC004 20/20 A2989 RMK AO2 PWINO
KDNN 230935Z AUTO 00000KT BKN004 20/20 A2988 RMK AO2 PWINO
KDNN 230915Z AUTO 00000KT BKN004 20/20 A2988 RMK AO2 PWINO
KDNN 230855Z AUTO 00000KT BKN004 BKN012 20/20 A2987 RMK AO2
KDNN 230835Z AUTO 00000KT 10SM OVC004 20/20 A2988 RMK AO2
KDNN 230815Z AUTO 00000KT OVC004 20/20 A2988 RMK AO2 PWINO
KDNN 230755Z AUTO 00000KT 10SM OVC004 20/20 A2987 RMK AO2
KDNN 230735Z AUTO 00000KT 10SM OVC006 20/20 A2987 RMK AO2
KDNN 230715Z AUTO 00000KT 10SM BKN006 BKN010 BKN021 20/20 A2986 RMK AO2
KDNN 230655Z AUTO 00000KT 10SM BKN010 BKN021 OVC090 20/20 A2986 RMK AO2
KDNN 230635Z AUTO 00000KT 10SM SCT010 SCT027 OVC090 20/20 A2986 RMK AO2
KDNN 230615Z AUTO 05003KT 21/21 A2985 RMK AO2 LTG DSNT S PWINO
KDNN 230555Z AUTO 15004KT 10SM BKN034 BKN040 OVC055 21/21 A2985 RMK AO2
KDNN 230535Z AUTO 14004KT 10SM SCT038 BKN047 OVC055 21/21 A2985 RMK AO2
KDNN 230515Z AUTO 00000KT 10SM SCT046 SCT090 21/21 A2985 RMK AO2
KDNN 230455Z AUTO 00000KT 10SM CLR 21/21 A2985 RMK AO2
KDNN 230435Z AUTO 00000KT BKN004 BKN010 BKN070 21/21 A2985 RMK AO2 PWINO
KDNN 230415Z AUTO 00000KT 10SM OVC006 21/21 A2985 RMK AO2
KDNN 230355Z AUTO 00000KT 10SM BKN006 BKN011 BKN055 21/21 A2985 RMK AO2
KDNN 230335Z AUTO 00000KT 21/21 A2986 RMK AO2 PWINO
KDNN 230315Z AUTO 00000KT 21/21 A2986 RMK AO2 PWINO
KDNN 230255Z AUTO 00000KT 21/21 A2986 RMK AO2 PWINO
KDNN 230235Z AUTO 00000KT 21/21 A2985 RMK AO2 LTG DSNT SE PWINO
KDNN 230215Z AUTO 00000KT 21/21 A2985 RMK AO2 LTG DSNT S PWINO
KDNN 230155Z AUTO 00000KT 10SM -RA SCT019 BKN047 OVC110 22/21 A2984 RMK AO2 LTG DSNT SW
KDNN 230135Z AUTO 06004KT 10SM BKN018 OVC026 23/21 A2985 RMK AO2 LTG DSNT SE
KDNN 230115Z AUTO 14007KT 10SM VCTS SCT019 BKN030 BKN042 22/21 A2985 RMK AO2 LTG DSNT NE AND SW
KDNN 230055Z AUTO 13007KT 10SM TS SCT041 SCT050 SCT090 23/21 A2984 RMK AO2 LTG DSNT E AND NW
KDNN 230035Z AUTO 15005KT 10SM SCT041 BKN050 23/21 A2984 RMK AO2 LTG DSNT NW
KDNN 230015Z AUTO 14004KT 23/21 A2984 RMK AO2 PWINO
KDNN 222355Z AUTO 14005KT SCT016 BKN022 OVC090 24/21 A2983 RMK AO2 PWINO
KDNN 222335Z AUTO 17004KT SCT021 25/22 A2983 RMK AO2 PWINO
KDNN 222315Z AUTO 14004KT 10SM CLR 25/22 A2983 RMK AO2 LTG DSNT S
KDNN 222255Z AUTO 00000KT 10SM SCT090 25/22 A2984 RMK AO2 LTG DSNT NW
KDNN 222235Z AUTO 15003KT 10SM BKN090 23/22 A2984 RMK AO2 LTG DSNT S PWINO
KDNN 222215Z AUTO 14004KT BKN090 OVC120 23/22 A2985 RMK AO2 LTG DSNT S PWINO
KDNN 222155Z AUTO 16003KT OVC090 23/21 A2986 RMK AO2 LTG DSNT NE PWINO
KDNN 222135Z AUTO 17003KT 22/21 A2986 RMK AO2 LTG DSNT S PWINO
KDNN 222115Z AUTO 20004G18KT 10SM -DZ SCT025 BKN060 OVC095 23/21 A2985 RMK AO2 LTG DSNT NE AND SE
KDNN 222055Z AUTO 22007KT 10SM -VCTSRA SCT027 BKN055 OVC090 27/20 A2983 RMK AO2 LTG DSNT ALQDS
KDNN 222035Z AUTO 19006KT 10SM SCT095 28/19 A2981 RMK AO2 LTG DSNT N AND SW
KDNN 222015Z AUTO 21006KT 10SM VCTS CLR 30/19 A2981 RMK AO2 LTG DSNT N AND NW
KDNN 221955Z AUTO 19005KT 10SM CLR 30/20 A2983 RMK AO2 LTG DSNT N AND SW
KDNN 221935Z AUTO 17003KT 10SM CLR 28/20 A2984 RMK AO2
KDNN 221915Z AUTO 18006KT 10SM SCT041 28/20 A2985 RMK AO2
KDNN 221855Z AUTO 17006KT 10SM SCT034 SCT041 29/20 A2983 RMK AO2
KDNN 221835Z AUTO 19006KT 10SM SCT034 SCT044 29/20 A2985 RMK AO2
KDNN 221815Z AUTO 18005KT 10SM CLR 28/21 A2985 RMK AO2
KDNN 221755Z AUTO 18004KT 10SM SCT033 SCT038 28/20 A2987 RMK AO2
KDNN 221735Z AUTO 18006KT SCT031 SCT039 28/20 A2988 RMK AO2 PWINO
KDNN 221715Z AUTO 21005KT 10SM SCT032 28/20 A2988 RMK AO2
KDNN 221655Z AUTO 19006KT 10SM CLR 27/21 A2988 RMK AO2 PWINO
KDNN 221635Z AUTO 17005KT CLR 27/20 A2988 RMK AO2 PWINO
KDNN 221615Z AUTO 17004KT SCT024 26/20 A2989 RMK AO2 PWINO
KDNN 221555Z AUTO 15007KT 10SM SCT024 SCT029 26/20 A2988 RMK AO2
KDNN 221535Z AUTO 19004KT SCT022 25/20 A2989 RMK AO2 PWINO
KDNN 221515Z AUTO 14005KT SCT024 25/20 A2988 RMK AO2 LTG DSNT S PWINO
KDNN 221455Z AUTO 13006KT 10SM SCT020 SCT026 24/20 A2988 RMK AO2
KDNN 221435Z AUTO 19003KT SCT020 SCT025 24/19 A2989 RMK AO2
KDNN 221415Z AUTO 14004KT 10SM SCT022 24/19 A2988 RMK AO2
KDNN 221355Z AUTO 15003KT SCT018 SCT024 24/19 A2988 RMK AO2 PWINO
KDNN 221335Z AUTO 18004KT 10SM CLR 23/19 A2988 RMK AO2
KDNN 221315Z AUTO 18005KT CLR 22/19 A2989 RMK AO2 PWINO
KDNN 221255Z AUTO 18004KT CLR 22/19 A2989 RMK AO2 PWINO
KDNN 221235Z AUTO 15003KT 10SM CLR 22/20 A2988 RMK AO2 PWINO
KDNN 221215Z AUTO 17003KT 10SM CLR 21/20 A2988 RMK AO2
KDNN 221155Z AUTO 15003KT 10SM CLR 21/20 A2988 RMK AO2
KDNN 221135Z AUTO 16003KT 20/20 A2988 RMK AO2 PWINO
KDNN 221115Z AUTO 16003KT 10SM SCT007 20/20 A2987 RMK AO2 PWINO
KDNN 221055Z AUTO 14003KT 20/20 A2987 RMK AO2 PWINO
KDNN 221035Z AUTO 17003KT 20/20 A2986 RMK AO2 PWINO
KDNN 221015Z AUTO 14008KT 20/20 A2984 RMK AO2 PWINO
KDNN 220955Z AUTO 16004KT 10SM CLR 21/21 A2984 RMK AO2
KDNN 220935Z AUTO 16004KT 10SM SCT120 21/21 A2982 RMK AO2
KDNN 220915Z AUTO 14005KT 10SM CLR 21/21 A2983 RMK AO2
KDNN 220855Z AUTO 14004KT 10SM CLR 21/21 A2983 RMK AO2
KDNN 220835Z AUTO 17003KT 10SM CLR 21/21 A2983 RMK AO2
KDNN 220815Z AUTO 00000KT 10SM CLR 21/21 A2982 RMK AO2
KDNN 220755Z AUTO 15003KT 10SM SCT120 21/21 A2982 RMK AO2
KDNN 220735Z AUTO 14004KT 10SM BKN120 21/21 A2981 RMK AO2
KDNN 220715Z AUTO 00000KT 10SM OVC120 21/21 A2982 RMK AO2
KDNN 220655Z AUTO 16004KT 10SM SCT050 SCT085 OVC120 21/21 A2983 RMK AO2
KDNN 220635Z AUTO 04004KT 7SM RA SCT020 SCT042 BKN065 21/21 A2984 RMK AO2
KDNN 220615Z AUTO 00000KT 10SM CLR 22/21 A2985 RMK AO2
KDNN 220555Z AUTO 15003KT 10SM CLR 22/21 A2985 RMK AO2
KDNN 220535Z AUTO 16003KT 10SM CLR 21/21 A2986 RMK AO2
KDNN 220515Z AUTO 15003KT 10SM CLR 21/21 A2986 RMK AO2
KDNN 220455Z AUTO 00000KT 10SM CLR 21/21 A2987 RMK AO2
KDNN 220435Z AUTO 00000KT 10SM CLR 22/21 A2987 RMK AO2
KDNN 220415Z AUTO 16003KT 10SM CLR 22/21 A2988 RMK AO2
KDNN 220355Z AUTO 15004KT 22/21 A2987 RMK AO2 PWINO
KDNN 220335Z AUTO 15004KT 22/21 A2987 RMK AO2 PWINO
KDNN 220315Z AUTO 14003KT 22/21 A2987 RMK AO2 PWINO
KDNN 220255Z AUTO 14004KT 22/22 A2986 RMK AO2 PWINO
KDNN 220235Z AUTO 14003KT 10SM CLR 23/22 A2987 RMK AO2
KDNN 220215Z AUTO 14003KT 23/22 A2987 RMK AO2 PWINO
KDNN 220155Z AUTO 14003KT 23/22 A2986 RMK AO2 PWINO